sensor_id;sensor_type;location;lat;lon;timestamp;temperature;humidity
21895;DHT22;11112;51.270;7.224;2023-04-25T00:01:55;11.40;94.80
21895;DHT22;11112;51.270;7.224;2023-04-25T00:04:23;11.40;94.80
21895;DHT22;11112;51.270;7.224;2023-04-25T00:06:51;11.40;94.90
21895;DHT22;11112;51.270;7.224;2023-04-25T00:09:18;11.40;94.80
21895;DHT22;11112;51.270;7.224;2023-04-25T00:11:46;11.40;94.80
21895;DHT22;11112;51.270;7.224;2023-04-25T00:14:13;11.30;94.80
21895;DHT22;11112;51.270;7.224;2023-04-25T00:16:42;11.30;95.20
21895;DHT22;11112;51.270;7.224;2023-04-25T00:19:11;11.30;94.90
21895;DHT22;11112;51.270;7.224;2023-04-25T00:21:38;11.30;95.00
21895;DHT22;11112;51.270;7.224;2023-04-25T00:24:10;11.30;94.90
21895;DHT22;11112;51.270;7.224;2023-04-25T00:26:38;11.30;95.00
21895;DHT22;11112;51.270;7.224;2023-04-25T00:29:05;11.30;95.00
21895;DHT22;11112;51.270;7.224;2023-04-25T00:31:32;11.40;95.10
21895;DHT22;11112;51.270;7.224;2023-04-25T00:34:00;11.40;95.00
21895;DHT22;11112;51.270;7.224;2023-04-25T00:36:29;11.40;95.00
21895;DHT22;11112;51.270;7.224;2023-04-25T00:38:57;11.40;95.00
21895;DHT22;11112;51.270;7.224;2023-04-25T00:41:25;11.30;95.10
21895;DHT22;11112;51.270;7.224;2023-04-25T00:43:54;11.40;95.20
21895;DHT22;11112;51.270;7.224;2023-04-25T00:46:22;11.30;95.20
21895;DHT22;11112;51.270;7.224;2023-04-25T00:48:50;11.40;95.30
21895;DHT22;11112;51.270;7.224;2023-04-25T00:51:20;11.30;95.30
21895;DHT22;11112;51.270;7.224;2023-04-25T00:53:49;11.30;95.40
21895;DHT22;11112;51.270;7.224;2023-04-25T00:56:18;11.30;95.40
21895;DHT22;11112;51.270;7.224;2023-04-25T00:58:48;11.30;95.50
21895;DHT22;11112;51.270;7.224;2023-04-25T01:01:18;11.30;95.50
21895;DHT22;11112;51.270;7.224;2023-04-25T01:03:46;11.40;95.60
21895;DHT22;11112;51.270;7.224;2023-04-25T01:06:16;11.30;95.40
21895;DHT22;11112;51.270;7.224;2023-04-25T01:08:44;11.30;95.50
21895;DHT22;11112;51.270;7.224;2023-04-25T01:11:12;11.30;95.60
21895;DHT22;11112;51.270;7.224;2023-04-25T01:13:40;11.30;95.60
21895;DHT22;11112;51.270;7.224;2023-04-25T01:16:07;11.30;95.60
21895;DHT22;11112;51.270;7.224;2023-04-25T01:18:34;11.30;95.60
21895;DHT22;11112;51.270;7.224;2023-04-25T01:21:08;11.30;95.60
21895;DHT22;11112;51.270;7.224;2023-04-25T01:23:36;11.20;95.70
21895;DHT22;11112;51.270;7.224;2023-04-25T01:26:05;11.20;95.70
21895;DHT22;11112;51.270;7.224;2023-04-25T01:28:33;11.30;95.70
21895;DHT22;11112;51.270;7.224;2023-04-25T01:31:01;11.20;95.80
21895;DHT22;11112;51.270;7.224;2023-04-25T01:33:29;11.30;95.80
21895;DHT22;11112;51.270;7.224;2023-04-25T01:36:00;11.20;95.80
21895;DHT22;11112;51.270;7.224;2023-04-25T01:38:29;11.20;95.80
21895;DHT22;11112;51.270;7.224;2023-04-25T01:40:56;11.20;95.80
21895;DHT22;11112;51.270;7.224;2023-04-25T01:43:24;11.20;95.90
21895;DHT22;11112;51.270;7.224;2023-04-25T01:45:55;11.20;95.80
21895;DHT22;11112;51.270;7.224;2023-04-25T01:48:24;11.20;95.90
21895;DHT22;11112;51.270;7.224;2023-04-25T01:50:55;11.20;96.00
21895;DHT22;11112;51.270;7.224;2023-04-25T01:53:22;11.20;96.00
21895;DHT22;11112;51.270;7.224;2023-04-25T01:55:54;11.20;96.10
21895;DHT22;11112;51.270;7.224;2023-04-25T01:58:21;11.20;96.00
21895;DHT22;11112;51.270;7.224;2023-04-25T02:00:49;11.20;96.10
21895;DHT22;11112;51.270;7.224;2023-04-25T02:03:19;11.20;96.10
21895;DHT22;11112;51.270;7.224;2023-04-25T02:05:47;11.20;96.10
21895;DHT22;11112;51.270;7.224;2023-04-25T02:08:16;11.20;96.10
21895;DHT22;11112;51.270;7.224;2023-04-25T02:10:44;11.20;96.50
21895;DHT22;11112;51.270;7.224;2023-04-25T02:13:13;11.10;96.10
21895;DHT22;11112;51.270;7.224;2023-04-25T02:15:40;11.20;96.30
21895;DHT22;11112;51.270;7.224;2023-04-25T02:18:14;11.20;96.30
21895;DHT22;11112;51.270;7.224;2023-04-25T02:20:46;11.20;96.20
21895;DHT22;11112;51.270;7.224;2023-04-25T02:23:13;11.20;96.40
21895;DHT22;11112;51.270;7.224;2023-04-25T02:25:44;11.20;96.30
21895;DHT22;11112;51.270;7.224;2023-04-25T02:28:15;11.20;96.40
21895;DHT22;11112;51.270;7.224;2023-04-25T02:30:43;11.20;96.40
21895;DHT22;11112;51.270;7.224;2023-04-25T02:33:10;11.20;96.50
21895;DHT22;11112;51.270;7.224;2023-04-25T02:35:38;11.20;96.60
21895;DHT22;11112;51.270;7.224;2023-04-25T02:38:06;11.20;96.70
21895;DHT22;11112;51.270;7.224;2023-04-25T02:40:33;11.10;96.80
21895;DHT22;11112;51.270;7.224;2023-04-25T02:43:00;11.10;96.90
21895;DHT22;11112;51.270;7.224;2023-04-25T02:45:29;11.10;97.00
21895;DHT22;11112;51.270;7.224;2023-04-25T02:47:59;11.10;97.10
21895;DHT22;11112;51.270;7.224;2023-04-25T02:50:26;11.10;97.50
21895;DHT22;11112;51.270;7.224;2023-04-25T02:52:54;11.10;97.10
21895;DHT22;11112;51.270;7.224;2023-04-25T02:55:21;11.10;97.10
21895;DHT22;11112;51.270;7.224;2023-04-25T02:57:49;11.10;97.00
21895;DHT22;11112;51.270;7.224;2023-04-25T03:00:16;11.10;97.10
21895;DHT22;11112;51.270;7.224;2023-04-25T03:02:45;11.10;97.00
21895;DHT22;11112;51.270;7.224;2023-04-25T03:05:12;11.10;97.10
21895;DHT22;11112;51.270;7.224;2023-04-25T03:07:39;11.10;97.10
21895;DHT22;11112;51.270;7.224;2023-04-25T03:10:10;11.10;97.00
21895;DHT22;11112;51.270;7.224;2023-04-25T03:12:37;11.10;97.10
21895;DHT22;11112;51.270;7.224;2023-04-25T03:15:07;11.10;97.00
21895;DHT22;11112;51.270;7.224;2023-04-25T03:17:35;11.10;97.00
21895;DHT22;11112;51.270;7.224;2023-04-25T03:20:06;11.10;97.10
21895;DHT22;11112;51.270;7.224;2023-04-25T03:22:34;11.10;97.10
21895;DHT22;11112;51.270;7.224;2023-04-25T03:25:02;11.10;97.10
21895;DHT22;11112;51.270;7.224;2023-04-25T03:27:29;11.10;97.10
21895;DHT22;11112;51.270;7.224;2023-04-25T03:29:57;11.10;97.10
21895;DHT22;11112;51.270;7.224;2023-04-25T03:32:24;11.10;97.20
21895;DHT22;11112;51.270;7.224;2023-04-25T03:34:52;11.10;97.20
21895;DHT22;11112;51.270;7.224;2023-04-25T03:37:23;11.10;97.20
21895;DHT22;11112;51.270;7.224;2023-04-25T03:39:52;11.10;97.30
21895;DHT22;11112;51.270;7.224;2023-04-25T03:42:20;11.10;97.30
21895;DHT22;11112;51.270;7.224;2023-04-25T03:44:48;11.10;97.30
21895;DHT22;11112;51.270;7.224;2023-04-25T03:47:15;11.10;97.20
21895;DHT22;11112;51.270;7.224;2023-04-25T03:49:42;11.10;97.30
21895;DHT22;11112;51.270;7.224;2023-04-25T03:52:10;11.10;97.30
21895;DHT22;11112;51.270;7.224;2023-04-25T03:54:39;11.10;97.30
21895;DHT22;11112;51.270;7.224;2023-04-25T03:57:06;11.10;97.50
21895;DHT22;11112;51.270;7.224;2023-04-25T03:59:33;11.10;97.60
21895;DHT22;11112;51.270;7.224;2023-04-25T04:02:03;11.10;97.50
21895;DHT22;11112;51.270;7.224;2023-04-25T04:04:31;11.10;97.70
21895;DHT22;11112;51.270;7.224;2023-04-25T04:06:58;11.10;97.80
21895;DHT22;11112;51.270;7.224;2023-04-25T04:09:26;11.00;98.00
21895;DHT22;11112;51.270;7.224;2023-04-25T04:11:55;11.00;98.10
21895;DHT22;11112;51.270;7.224;2023-04-25T04:14:22;11.00;98.20
21895;DHT22;11112;51.270;7.224;2023-04-25T04:16:51;11.10;98.20
21895;DHT22;11112;51.270;7.224;2023-04-25T04:19:18;11.10;98.10
21895;DHT22;11112;51.270;7.224;2023-04-25T04:21:48;11.10;97.90
21895;DHT22;11112;51.270;7.224;2023-04-25T04:24:16;11.10;97.90
21895;DHT22;11112;51.270;7.224;2023-04-25T04:26:43;11.00;97.80
21895;DHT22;11112;51.270;7.224;2023-04-25T04:29:11;11.10;98.00
21895;DHT22;11112;51.270;7.224;2023-04-25T04:31:47;11.00;98.00
21895;DHT22;11112;51.270;7.224;2023-04-25T04:34:14;11.10;98.00
21895;DHT22;11112;51.270;7.224;2023-04-25T04:36:42;11.00;97.90
21895;DHT22;11112;51.270;7.224;2023-04-25T04:39:10;11.00;97.80
21895;DHT22;11112;51.270;7.224;2023-04-25T04:41:38;11.00;98.10
21895;DHT22;11112;51.270;7.224;2023-04-25T04:44:05;11.00;98.20
21895;DHT22;11112;51.270;7.224;2023-04-25T04:46:35;11.00;98.20
21895;DHT22;11112;51.270;7.224;2023-04-25T04:49:07;11.00;98.10
21895;DHT22;11112;51.270;7.224;2023-04-25T04:51:34;10.90;98.00
21895;DHT22;11112;51.270;7.224;2023-04-25T04:54:02;10.90;98.00
21895;DHT22;11112;51.270;7.224;2023-04-25T04:56:31;10.80;98.00
21895;DHT22;11112;51.270;7.224;2023-04-25T04:58:59;10.80;98.20
21895;DHT22;11112;51.270;7.224;2023-04-25T05:01:27;10.80;98.40
21895;DHT22;11112;51.270;7.224;2023-04-25T05:03:57;10.70;98.50
21895;DHT22;11112;51.270;7.224;2023-04-25T05:06:25;10.80;98.60
21895;DHT22;11112;51.270;7.224;2023-04-25T05:08:57;10.80;98.30
21895;DHT22;11112;51.270;7.224;2023-04-25T05:11:25;10.80;98.30
21895;DHT22;11112;51.270;7.224;2023-04-25T05:13:53;10.90;98.40
21895;DHT22;11112;51.270;7.224;2023-04-25T05:16:20;10.90;98.30
21895;DHT22;11112;51.270;7.224;2023-04-25T05:18:48;10.90;98.40
21895;DHT22;11112;51.270;7.224;2023-04-25T05:21:16;11.00;98.50
21895;DHT22;11112;51.270;7.224;2023-04-25T05:23:45;10.90;98.20
21895;DHT22;11112;51.270;7.224;2023-04-25T05:26:12;10.90;98.30
21895;DHT22;11112;51.270;7.224;2023-04-25T05:28:40;10.90;98.50
21895;DHT22;11112;51.270;7.224;2023-04-25T05:31:09;10.90;98.20
21895;DHT22;11112;51.270;7.224;2023-04-25T05:33:37;10.90;98.20
21895;DHT22;11112;51.270;7.224;2023-04-25T05:36:05;10.90;98.10
21895;DHT22;11112;51.270;7.224;2023-04-25T05:38:34;10.80;97.90
21895;DHT22;11112;51.270;7.224;2023-04-25T05:41:02;10.80;97.90
21895;DHT22;11112;51.270;7.224;2023-04-25T05:43:32;10.80;97.90
21895;DHT22;11112;51.270;7.224;2023-04-25T05:45:59;10.80;98.00
21895;DHT22;11112;51.270;7.224;2023-04-25T05:48:26;10.80;98.00
21895;DHT22;11112;51.270;7.224;2023-04-25T05:50:57;10.70;97.80
21895;DHT22;11112;51.270;7.224;2023-04-25T05:53:24;10.70;98.10
21895;DHT22;11112;51.270;7.224;2023-04-25T05:55:53;10.70;98.00
21895;DHT22;11112;51.270;7.224;2023-04-25T05:58:20;10.80;98.10
21895;DHT22;11112;51.270;7.224;2023-04-25T06:00:47;10.80;98.20
21895;DHT22;11112;51.270;7.224;2023-04-25T06:03:15;10.90;97.90
21895;DHT22;11112;51.270;7.224;2023-04-25T06:05:42;10.80;97.70
21895;DHT22;11112;51.270;7.224;2023-04-25T06:08:10;10.80;97.90
21895;DHT22;11112;51.270;7.224;2023-04-25T06:10:38;10.90;98.20
21895;DHT22;11112;51.270;7.224;2023-04-25T06:13:07;11.00;97.70
21895;DHT22;11112;51.270;7.224;2023-04-25T06:15:34;10.90;97.60
21895;DHT22;11112;51.270;7.224;2023-04-25T06:18:02;10.90;97.50
21895;DHT22;11112;51.270;7.224;2023-04-25T06:20:29;11.00;97.50
21895;DHT22;11112;51.270;7.224;2023-04-25T06:22:56;11.00;97.60
21895;DHT22;11112;51.270;7.224;2023-04-25T06:25:23;11.00;97.60
21895;DHT22;11112;51.270;7.224;2023-04-25T06:27:51;11.00;97.30
21895;DHT22;11112;51.270;7.224;2023-04-25T06:30:20;10.90;97.30
21895;DHT22;11112;51.270;7.224;2023-04-25T06:32:51;10.90;97.40
21895;DHT22;11112;51.270;7.224;2023-04-25T06:35:18;10.90;97.60
21895;DHT22;11112;51.270;7.224;2023-04-25T06:37:46;11.00;97.60
21895;DHT22;11112;51.270;7.224;2023-04-25T06:40:13;11.10;97.50
21895;DHT22;11112;51.270;7.224;2023-04-25T06:42:43;11.10;97.30
21895;DHT22;11112;51.270;7.224;2023-04-25T06:45:10;11.10;97.40
21895;DHT22;11112;51.270;7.224;2023-04-25T06:47:40;11.10;96.90
21895;DHT22;11112;51.270;7.224;2023-04-25T06:50:09;11.10;96.90
21895;DHT22;11112;51.270;7.224;2023-04-25T06:52:42;11.10;97.00
21895;DHT22;11112;51.270;7.224;2023-04-25T06:55:09;11.20;97.10
21895;DHT22;11112;51.270;7.224;2023-04-25T06:57:36;11.20;96.60
21895;DHT22;11112;51.270;7.224;2023-04-25T07:00:05;11.20;96.40
21895;DHT22;11112;51.270;7.224;2023-04-25T07:02:35;11.20;96.50
21895;DHT22;11112;51.270;7.224;2023-04-25T07:05:04;11.20;96.30
21895;DHT22;11112;51.270;7.224;2023-04-25T07:07:31;11.30;95.80
21895;DHT22;11112;51.270;7.224;2023-04-25T07:09:59;11.30;95.70
21895;DHT22;11112;51.270;7.224;2023-04-25T07:12:26;11.30;95.60
21895;DHT22;11112;51.270;7.224;2023-04-25T07:14:53;11.30;95.80
21895;DHT22;11112;51.270;7.224;2023-04-25T07:17:21;11.30;95.40
21895;DHT22;11112;51.270;7.224;2023-04-25T07:19:48;11.20;94.60
21895;DHT22;11112;51.270;7.224;2023-04-25T07:22:41;11.00;94.20
21895;DHT22;11112;51.270;7.224;2023-04-25T07:25:12;11.10;94.80
21895;DHT22;11112;51.270;7.224;2023-04-25T07:27:40;11.00;95.00
21895;DHT22;11112;51.270;7.224;2023-04-25T07:30:14;11.10;95.00
21895;DHT22;11112;51.270;7.224;2023-04-25T07:32:45;11.20;95.30
21895;DHT22;11112;51.270;7.224;2023-04-25T07:35:12;11.40;95.20
21895;DHT22;11112;51.270;7.224;2023-04-25T07:37:42;11.40;94.70
21895;DHT22;11112;51.270;7.224;2023-04-25T07:40:11;11.30;94.40
21895;DHT22;11112;51.270;7.224;2023-04-25T07:42:41;11.20;94.30
21895;DHT22;11112;51.270;7.224;2023-04-25T07:45:10;11.10;94.40
21895;DHT22;11112;51.270;7.224;2023-04-25T07:47:38;11.10;94.00
21895;DHT22;11112;51.270;7.224;2023-04-25T07:50:06;11.00;94.10
21895;DHT22;11112;51.270;7.224;2023-04-25T07:52:34;11.00;94.30
21895;DHT22;11112;51.270;7.224;2023-04-25T07:55:03;11.00;94.60
21895;DHT22;11112;51.270;7.224;2023-04-25T07:57:31;11.00;94.20
21895;DHT22;11112;51.270;7.224;2023-04-25T07:59:58;10.70;94.20
21895;DHT22;11112;51.270;7.224;2023-04-25T08:02:26;10.60;94.50
21895;DHT22;11112;51.270;7.224;2023-04-25T08:04:54;10.60;94.90
21895;DHT22;11112;51.270;7.224;2023-04-25T08:07:21;10.60;94.90
21895;DHT22;11112;51.270;7.224;2023-04-25T08:09:48;10.60;94.80
21895;DHT22;11112;51.270;7.224;2023-04-25T08:12:17;10.80;95.10
21895;DHT22;11112;51.270;7.224;2023-04-25T08:14:44;10.90;95.00
21895;DHT22;11112;51.270;7.224;2023-04-25T08:17:11;11.00;94.80
21895;DHT22;11112;51.270;7.224;2023-04-25T08:19:39;11.00;94.60
21895;DHT22;11112;51.270;7.224;2023-04-25T08:22:07;11.10;94.30
21895;DHT22;11112;51.270;7.224;2023-04-25T08:24:34;11.00;94.10
21895;DHT22;11112;51.270;7.224;2023-04-25T08:27:02;10.80;94.20
21895;DHT22;11112;51.270;7.224;2023-04-25T08:29:31;10.80;93.90
21895;DHT22;11112;51.270;7.224;2023-04-25T08:31:59;10.80;93.90
21895;DHT22;11112;51.270;7.224;2023-04-25T08:34:26;10.80;93.90
21895;DHT22;11112;51.270;7.224;2023-04-25T08:36:53;10.90;93.40
21895;DHT22;11112;51.270;7.224;2023-04-25T08:39:21;11.10;92.70
21895;DHT22;11112;51.270;7.224;2023-04-25T08:41:48;11.10;92.60
21895;DHT22;11112;51.270;7.224;2023-04-25T08:44:16;11.10;92.50
21895;DHT22;11112;51.270;7.224;2023-04-25T08:46:47;11.20;92.80
21895;DHT22;11112;51.270;7.224;2023-04-25T08:49:18;11.20;92.50
21895;DHT22;11112;51.270;7.224;2023-04-25T08:51:46;11.30;92.60
21895;DHT22;11112;51.270;7.224;2023-04-25T08:54:15;11.30;92.20
21895;DHT22;11112;51.270;7.224;2023-04-25T08:56:44;11.30;91.60
21895;DHT22;11112;51.270;7.224;2023-04-25T08:59:12;11.20;91.20
21895;DHT22;11112;51.270;7.224;2023-04-25T09:01:40;11.20;91.60
21895;DHT22;11112;51.270;7.224;2023-04-25T09:04:09;11.10;91.30
21895;DHT22;11112;51.270;7.224;2023-04-25T09:06:36;10.90;91.50
21895;DHT22;11112;51.270;7.224;2023-04-25T09:09:04;11.00;91.80
21895;DHT22;11112;51.270;7.224;2023-04-25T09:11:34;11.00;91.10
21895;DHT22;11112;51.270;7.224;2023-04-25T09:14:16;11.00;90.70
21895;DHT22;11112;51.270;7.224;2023-04-25T09:16:58;10.90;90.30
21895;DHT22;11112;51.270;7.224;2023-04-25T09:19:32;11.10;91.00
21895;DHT22;11112;51.270;7.224;2023-04-25T09:22:03;11.30;88.90
21895;DHT22;11112;51.270;7.224;2023-04-25T09:24:32;11.50;88.70
21895;DHT22;11112;51.270;7.224;2023-04-25T09:27:02;11.50;88.50
21895;DHT22;11112;51.270;7.224;2023-04-25T09:29:33;11.50;89.30
21895;DHT22;11112;51.270;7.224;2023-04-25T09:32:12;11.60;88.20
21895;DHT22;11112;51.270;7.224;2023-04-25T09:34:44;11.50;87.80
21895;DHT22;11112;51.270;7.224;2023-04-25T09:37:18;11.50;88.00
21895;DHT22;11112;51.270;7.224;2023-04-25T09:39:52;11.50;86.60
21895;DHT22;11112;51.270;7.224;2023-04-25T09:42:22;11.40;85.10
21895;DHT22;11112;51.270;7.224;2023-04-25T09:44:52;11.20;88.60
21895;DHT22;11112;51.270;7.224;2023-04-25T09:47:22;11.20;90.40
21895;DHT22;11112;51.270;7.224;2023-04-25T09:49:52;11.10;90.70
21895;DHT22;11112;51.270;7.224;2023-04-25T09:52:21;11.10;90.10
21895;DHT22;11112;51.270;7.224;2023-04-25T09:54:50;11.10;90.00
21895;DHT22;11112;51.270;7.224;2023-04-25T09:57:19;11.20;90.60
21895;DHT22;11112;51.270;7.224;2023-04-25T09:59:48;11.40;90.40
21895;DHT22;11112;51.270;7.224;2023-04-25T10:02:18;11.50;90.20
21895;DHT22;11112;51.270;7.224;2023-04-25T10:04:49;11.60;90.00
21895;DHT22;11112;51.270;7.224;2023-04-25T10:07:20;11.50;86.20
21895;DHT22;11112;51.270;7.224;2023-04-25T10:09:54;11.50;85.80
21895;DHT22;11112;51.270;7.224;2023-04-25T10:12:24;11.50;86.40
21895;DHT22;11112;51.270;7.224;2023-04-25T10:14:54;11.50;87.00
21895;DHT22;11112;51.270;7.224;2023-04-25T10:17:22;11.50;86.60
21895;DHT22;11112;51.270;7.224;2023-04-25T10:19:51;11.60;86.50
21895;DHT22;11112;51.270;7.224;2023-04-25T10:22:29;11.60;86.00
21895;DHT22;11112;51.270;7.224;2023-04-25T10:24:58;11.60;86.70
21895;DHT22;11112;51.270;7.224;2023-04-25T10:27:27;11.70;86.50
21895;DHT22;11112;51.270;7.224;2023-04-25T10:30:01;11.70;85.90
21895;DHT22;11112;51.270;7.224;2023-04-25T10:32:30;11.70;84.20
21895;DHT22;11112;51.270;7.224;2023-04-25T10:35:10;11.60;84.00
21895;DHT22;11112;51.270;7.224;2023-04-25T10:37:46;11.60;82.70
21895;DHT22;11112;51.270;7.224;2023-04-25T10:40:26;11.50;83.30
21895;DHT22;11112;51.270;7.224;2023-04-25T10:42:54;11.60;83.40
21895;DHT22;11112;51.270;7.224;2023-04-25T10:45:22;11.60;83.50
21895;DHT22;11112;51.270;7.224;2023-04-25T10:47:52;11.70;82.80
21895;DHT22;11112;51.270;7.224;2023-04-25T10:50:21;11.80;81.80
21895;DHT22;11112;51.270;7.224;2023-04-25T10:52:48;11.90;80.50
21895;DHT22;11112;51.270;7.224;2023-04-25T10:55:16;11.90;80.30
21895;DHT22;11112;51.270;7.224;2023-04-25T10:57:44;12.00;75.70
21895;DHT22;11112;51.270;7.224;2023-04-25T11:00:15;12.00;76.30
21895;DHT22;11112;51.270;7.224;2023-04-25T11:02:45;12.00;74.80
21895;DHT22;11112;51.270;7.224;2023-04-25T11:05:32;12.00;74.50
21895;DHT22;11112;51.270;7.224;2023-04-25T11:08:10;11.90;72.80
21895;DHT22;11112;51.270;7.224;2023-04-25T11:10:40;11.90;72.20
21895;DHT22;11112;51.270;7.224;2023-04-25T11:13:07;11.90;73.20
21895;DHT22;11112;51.270;7.224;2023-04-25T11:15:37;11.80;73.70
21895;DHT22;11112;51.270;7.224;2023-04-25T11:18:04;11.80;74.00
21895;DHT22;11112;51.270;7.224;2023-04-25T11:20:33;11.80;73.70
21895;DHT22;11112;51.270;7.224;2023-04-25T11:23:01;11.80;73.00
21895;DHT22;11112;51.270;7.224;2023-04-25T11:25:29;11.80;72.80
21895;DHT22;11112;51.270;7.224;2023-04-25T11:27:58;11.80;71.90
21895;DHT22;11112;51.270;7.224;2023-04-25T11:30:26;11.80;72.60
21895;DHT22;11112;51.270;7.224;2023-04-25T11:32:56;11.80;73.20
21895;DHT22;11112;51.270;7.224;2023-04-25T11:35:23;11.80;73.00
21895;DHT22;11112;51.270;7.224;2023-04-25T11:37:54;11.90;73.80
21895;DHT22;11112;51.270;7.224;2023-04-25T11:40:21;11.90;73.70
21895;DHT22;11112;51.270;7.224;2023-04-25T11:42:51;11.90;74.30
21895;DHT22;11112;51.270;7.224;2023-04-25T11:45:18;11.90;75.20
21895;DHT22;11112;51.270;7.224;2023-04-25T11:47:46;11.70;79.20
21895;DHT22;11112;51.270;7.224;2023-04-25T11:50:13;11.50;81.50
21895;DHT22;11112;51.270;7.224;2023-04-25T11:52:43;11.50;82.70
21895;DHT22;11112;51.270;7.224;2023-04-25T11:55:17;11.40;83.90
21895;DHT22;11112;51.270;7.224;2023-04-25T11:57:48;11.30;85.80
21895;DHT22;11112;51.270;7.224;2023-04-25T12:00:18;11.30;85.10
21895;DHT22;11112;51.270;7.224;2023-04-25T12:02:50;11.20;85.80
21895;DHT22;11112;51.270;7.224;2023-04-25T12:05:19;11.10;85.30
21895;DHT22;11112;51.270;7.224;2023-04-25T12:07:46;11.10;84.20
21895;DHT22;11112;51.270;7.224;2023-04-25T12:10:16;11.10;84.70
21895;DHT22;11112;51.270;7.224;2023-04-25T12:12:46;11.20;85.50
21895;DHT22;11112;51.270;7.224;2023-04-25T12:15:15;11.40;85.00
21895;DHT22;11112;51.270;7.224;2023-04-25T12:17:45;11.50;85.40
21895;DHT22;11112;51.270;7.224;2023-04-25T12:20:14;11.50;83.30
21895;DHT22;11112;51.270;7.224;2023-04-25T12:22:44;11.50;83.60
21895;DHT22;11112;51.270;7.224;2023-04-25T12:25:12;11.60;84.30
21895;DHT22;11112;51.270;7.224;2023-04-25T12:27:41;11.70;83.70
21895;DHT22;11112;51.270;7.224;2023-04-25T12:30:09;11.70;82.60
21895;DHT22;11112;51.270;7.224;2023-04-25T12:32:37;11.80;81.90
21895;DHT22;11112;51.270;7.224;2023-04-25T12:35:05;11.90;81.20
21895;DHT22;11112;51.270;7.224;2023-04-25T12:37:33;11.90;80.80
21895;DHT22;11112;51.270;7.224;2023-04-25T12:40:00;11.90;80.80
21895;DHT22;11112;51.270;7.224;2023-04-25T12:42:31;11.90;80.70
21895;DHT22;11112;51.270;7.224;2023-04-25T12:45:00;11.90;80.20
21895;DHT22;11112;51.270;7.224;2023-04-25T12:47:27;11.80;80.70
21895;DHT22;11112;51.270;7.224;2023-04-25T12:49:54;11.80;81.30
21895;DHT22;11112;51.270;7.224;2023-04-25T12:52:22;11.80;81.30
21895;DHT22;11112;51.270;7.224;2023-04-25T12:54:49;11.80;80.80
21895;DHT22;11112;51.270;7.224;2023-04-25T12:57:16;11.80;80.90
21895;DHT22;11112;51.270;7.224;2023-04-25T12:59:43;11.70;81.60
21895;DHT22;11112;51.270;7.224;2023-04-25T13:02:12;11.70;81.60
21895;DHT22;11112;51.270;7.224;2023-04-25T13:04:39;11.80;82.10
21895;DHT22;11112;51.270;7.224;2023-04-25T13:07:09;11.70;80.60
21895;DHT22;11112;51.270;7.224;2023-04-25T13:09:37;11.70;81.40
21895;DHT22;11112;51.270;7.224;2023-04-25T13:12:08;11.80;81.50
21895;DHT22;11112;51.270;7.224;2023-04-25T13:14:38;11.80;79.90
21895;DHT22;11112;51.270;7.224;2023-04-25T13:17:05;11.90;78.30
21895;DHT22;11112;51.270;7.224;2023-04-25T13:19:34;11.80;75.90
21895;DHT22;11112;51.270;7.224;2023-04-25T13:22:02;11.80;76.90
21895;DHT22;11112;51.270;7.224;2023-04-25T13:24:30;11.80;75.50
21895;DHT22;11112;51.270;7.224;2023-04-25T13:26:57;11.90;76.00
21895;DHT22;11112;51.270;7.224;2023-04-25T13:29:25;11.90;77.00
21895;DHT22;11112;51.270;7.224;2023-04-25T13:31:52;11.90;77.10
21895;DHT22;11112;51.270;7.224;2023-04-25T13:34:19;12.00;76.70
21895;DHT22;11112;51.270;7.224;2023-04-25T13:36:49;12.00;76.30
21895;DHT22;11112;51.270;7.224;2023-04-25T13:39:17;12.00;75.40
21895;DHT22;11112;51.270;7.224;2023-04-25T13:41:44;12.10;74.90
21895;DHT22;11112;51.270;7.224;2023-04-25T13:44:14;12.10;74.60
21895;DHT22;11112;51.270;7.224;2023-04-25T13:46:41;12.10;75.90
21895;DHT22;11112;51.270;7.224;2023-04-25T13:49:08;12.10;76.10
21895;DHT22;11112;51.270;7.224;2023-04-25T13:51:36;12.10;76.40
21895;DHT22;11112;51.270;7.224;2023-04-25T13:54:05;12.10;76.00
21895;DHT22;11112;51.270;7.224;2023-04-25T13:56:33;12.10;75.10
21895;DHT22;11112;51.270;7.224;2023-04-25T13:59:00;12.00;75.90
21895;DHT22;11112;51.270;7.224;2023-04-25T14:01:28;12.00;76.90
21895;DHT22;11112;51.270;7.224;2023-04-25T14:03:57;12.00;78.70
21895;DHT22;11112;51.270;7.224;2023-04-25T14:06:27;11.90;81.20
21895;DHT22;11112;51.270;7.224;2023-04-25T14:08:56;11.90;88.20
21895;DHT22;11112;51.270;7.224;2023-04-25T14:11:25;11.80;90.60
21895;DHT22;11112;51.270;7.224;2023-04-25T14:13:53;11.70;91.40
21895;DHT22;11112;51.270;7.224;2023-04-25T14:16:20;11.70;91.40
21895;DHT22;11112;51.270;7.224;2023-04-25T14:18:48;11.70;91.90
21895;DHT22;11112;51.270;7.224;2023-04-25T14:21:15;11.60;92.20
21895;DHT22;11112;51.270;7.224;2023-04-25T14:23:43;11.60;92.50
21895;DHT22;11112;51.270;7.224;2023-04-25T14:26:12;11.70;93.00
21895;DHT22;11112;51.270;7.224;2023-04-25T14:28:43;11.80;93.10
21895;DHT22;11112;51.270;7.224;2023-04-25T14:31:11;11.80;93.10
21895;DHT22;11112;51.270;7.224;2023-04-25T14:33:38;11.90;92.60
21895;DHT22;11112;51.270;7.224;2023-04-25T14:36:09;11.90;92.90
21895;DHT22;11112;51.270;7.224;2023-04-25T14:38:37;11.90;92.30
21895;DHT22;11112;51.270;7.224;2023-04-25T14:41:07;11.90;92.10
21895;DHT22;11112;51.270;7.224;2023-04-25T14:43:36;11.90;91.50
21895;DHT22;11112;51.270;7.224;2023-04-25T14:46:07;11.80;91.00
21895;DHT22;11112;51.270;7.224;2023-04-25T14:48:37;11.80;91.10
21895;DHT22;11112;51.270;7.224;2023-04-25T14:51:04;11.80;90.10
21895;DHT22;11112;51.270;7.224;2023-04-25T14:53:32;11.70;89.00
21895;DHT22;11112;51.270;7.224;2023-04-25T14:56:00;11.70;90.50
21895;DHT22;11112;51.270;7.224;2023-04-25T14:58:27;11.70;90.80
21895;DHT22;11112;51.270;7.224;2023-04-25T15:00:57;11.80;90.80
21895;DHT22;11112;51.270;7.224;2023-04-25T15:03:27;11.80;90.20
21895;DHT22;11112;51.270;7.224;2023-04-25T15:05:55;11.90;89.10
21895;DHT22;11112;51.270;7.224;2023-04-25T15:08:23;11.90;89.10
21895;DHT22;11112;51.270;7.224;2023-04-25T15:10:51;11.90;89.50
21895;DHT22;11112;51.270;7.224;2023-04-25T15:13:19;11.90;89.50
21895;DHT22;11112;51.270;7.224;2023-04-25T15:15:47;11.90;89.50
21895;DHT22;11112;51.270;7.224;2023-04-25T15:18:17;11.90;89.30
21895;DHT22;11112;51.270;7.224;2023-04-25T15:20:51;11.90;89.50
21895;DHT22;11112;51.270;7.224;2023-04-25T15:23:20;11.90;90.10
21895;DHT22;11112;51.270;7.224;2023-04-25T15:25:54;11.90;90.50
21895;DHT22;11112;51.270;7.224;2023-04-25T15:28:22;12.00;90.40
21895;DHT22;11112;51.270;7.224;2023-04-25T15:30:50;12.00;90.60
21895;DHT22;11112;51.270;7.224;2023-04-25T15:33:25;12.00;90.60
21895;DHT22;11112;51.270;7.224;2023-04-25T15:35:55;12.00;90.90
21895;DHT22;11112;51.270;7.224;2023-04-25T15:38:24;12.00;91.30
21895;DHT22;11112;51.270;7.224;2023-04-25T15:40:52;12.00;91.00